L'Acadie

CWIZ · Quebec, 加拿大

罗盘
风向 的 风向 300°
风: 6 kt, 2 beaufort

添加一条跑道以查看侧风和逆风信息。

添置 跑道
0 1.000 2.000 3.000 4.000 5.000
FEW 2.800 ft
OVC 3.300 ft
SPECI CYHU 080633Z AUTO 30006KT 9SM -RA FEW028 OVC033 05/02 A3017 RMK SLP218

METAR L'Acadie - CWIZ

L'Acadie是,加拿大中的未知。 该领域的国际民航组织标志是CWIZ.

这份报告是针对2022年12月8日 01:33, 当地时间在Montréal / Saint-Hubert Airport进行的。

机场观察

风向为300°,速度为6 kt。

可见度为9 mi。

有几云在2.800 ft的高度 和 乌云密布在3.300 ft的高度。 破损或更高的上限为3.300 ft。

当前天气为光 雨。 温度为5 °C,阵风为1 °C。 露点为2 °C,相对湿度为81%。 海平面上的气压为30,17 inHg (QNH)。

白天

今天,太阳从07:19升起,在16:10降落。 这适用于L'Acadie,世界夏令时可能有所不同。 当地时间与世界标准时间之间的时差为-5 小时。 当前,没有夏令时有效。

公司介绍

我们没有关于这个机场的公司信息。

体会

到Vliegles.nl去找飞行课程,跳伞和其他飞行体验。 浏览页面,了解L'Acadie附近所有可用的活动。 你也可以使用搜索功能来寻找你所在地附近的特定飞行课程、跳伞或其他飞行体验。

乌云

2.800 ft FEW 几云
3.300 ft OVC 乌云密布

温度 & 天气

天气 光 雨
温度 5 °C
露点 2 °C
相对湿度 81%
风寒 1 °C
Kp-index 1 (0-9)

评论

SLP218海平面压力为30,17 inHg (30,17 inHg)

白天

日出
07:21 (5:37)
中午
11:45
日落
16:10

小工具

你想在你的网站上有一个关于L'Acadie的当前航空天气(METAR)的小部件吗?

显示HTML代码

我们和第三方通过cookies跟踪您在我们网站上的互联网行为。如果你继续,我们认为你同意我们的饼干政策